createdAt,value
2022-12-19T00:01:48.192Z,102702.84
2022-12-19T00:04:54.646Z,102694.28
2022-12-19T00:08:03.092Z,102703.84
2022-12-19T00:11:18.396Z,102699.59
2022-12-19T00:14:23.492Z,102705.22
2022-12-19T00:17:29.819Z,102696.38
2022-12-19T00:20:34.704Z,102706.50
2022-12-19T00:23:40.010Z,102703.41
2022-12-19T00:26:44.954Z,102704.13
2022-12-19T00:29:49.852Z,102712.53
2022-12-19T00:32:56.338Z,102684.81
2022-12-19T00:36:03.487Z,102695.38
2022-12-19T00:39:11.819Z,102687.19
2022-12-19T00:42:16.845Z,102689.41
2022-12-19T00:45:22.380Z,102694.66
2022-12-19T00:48:30.278Z,102704.31
2022-12-19T00:51:37.124Z,102713.31
2022-12-19T00:54:42.128Z,102706.63
2022-12-19T00:57:47.098Z,102709.00
2022-12-19T01:00:52.066Z,102704.84
2022-12-19T01:07:26.124Z,102695.72
2022-12-19T01:10:31.095Z,102702.78
2022-12-19T01:13:36.564Z,102715.03
2022-12-19T01:16:47.050Z,102694.94
2022-12-19T01:19:53.406Z,102711.84
2022-12-19T01:23:00.291Z,102707.38
2022-12-19T01:26:06.315Z,102700.28
2022-12-19T01:29:12.660Z,102701.00
2022-12-19T01:32:17.525Z,102695.59
2022-12-19T01:35:24.076Z,102695.78
2022-12-19T01:38:29.115Z,102689.41
2022-12-19T01:41:33.996Z,102687.38
2022-12-19T01:44:41.467Z,102690.22
2022-12-19T01:47:51.223Z,102688.47
2022-12-19T01:51:03.426Z,102682.22
2022-12-19T01:54:10.048Z,102696.50
2022-12-19T01:57:16.512Z,102694.56
2022-12-19T02:00:21.811Z,102689.50
2022-12-19T02:03:30.028Z,102689.34
2022-12-19T02:06:36.830Z,102691.56
2022-12-19T02:09:42.030Z,102687.84
2022-12-19T02:12:47.910Z,102690.97
2022-12-19T02:15:59.241Z,102698.69
2022-12-19T02:19:19.611Z,102691.88
2022-12-19T02:22:31.188Z,102699.97
2022-12-19T02:25:51.963Z,102692.94
2022-12-19T02:29:22.542Z,102687.53
2022-12-19T02:32:36.247Z,102694.28
2022-12-19T02:35:45.537Z,102691.00
2022-12-19T02:38:55.581Z,102687.47
2022-12-19T02:42:02.484Z,102701.78
2022-12-19T02:45:09.904Z,102681.69
2022-12-19T02:48:19.326Z,102680.81
2022-12-19T02:51:25.474Z,102690.16
2022-12-19T02:54:30.895Z,102681.78
2022-12-19T02:57:44.613Z,102687.59
2022-12-19T03:00:56.759Z,102687.63
2022-12-19T03:04:12.070Z,102682.09
2022-12-19T03:07:26.166Z,102681.03
2022-12-19T03:10:35.434Z,102684.22
2022-12-19T03:13:45.569Z,102692.63
2022-12-19T03:16:51.599Z,102697.75
2022-12-19T03:19:58.225Z,102685.03
2022-12-19T03:23:03.317Z,102688.00
2022-12-19T03:26:11.071Z,102692.53
2022-12-19T03:29:18.970Z,102681.16
2022-12-19T03:32:25.383Z,102675.38
2022-12-19T03:35:32.969Z,102677.34
2022-12-19T03:38:40.657Z,102674.22
2022-12-19T03:42:03.595Z,102664.69
2022-12-19T03:45:09.664Z,102667.16
2022-12-19T03:48:18.336Z,102660.13
2022-12-19T03:51:31.010Z,102656.41
2022-12-19T03:54:40.567Z,102661.63
2022-12-19T03:57:49.562Z,102652.56
2022-12-19T04:00:55.361Z,102664.41
2022-12-19T04:04:01.437Z,102660.50
2022-12-19T04:07:08.152Z,102659.69
2022-12-19T04:10:15.991Z,102658.09
2022-12-19T04:13:24.687Z,102646.44
2022-12-19T04:16:33.948Z,102647.41
2022-12-19T04:19:45.129Z,102642.44
2022-12-19T04:22:54.539Z,102631.50
2022-12-19T04:26:03.000Z,102621.47
2022-12-19T04:29:08.425Z,102620.88
2022-12-19T04:32:15.317Z,102622.03
2022-12-19T04:35:20.633Z,102625.25
2022-12-19T04:38:27.465Z,102617.91
2022-12-19T04:41:33.400Z,102618.84
2022-12-19T04:44:38.450Z,102619.63
2022-12-19T04:47:43.752Z,102614.72
2022-12-19T04:50:48.877Z,102609.75
2022-12-19T04:53:55.340Z,102613.34
2022-12-19T04:57:00.523Z,102617.72
2022-12-19T05:00:08.630Z,102610.19
2022-12-19T05:03:13.685Z,102618.75
2022-12-19T05:06:18.734Z,102613.59
2022-12-19T05:09:25.556Z,102613.09
2022-12-19T05:12:30.800Z,102608.56
2022-12-19T05:15:35.961Z,102604.66
2022-12-19T05:18:41.501Z,102601.97
2022-12-19T05:21:46.892Z,102605.25
2022-12-19T05:24:53.526Z,102602.72
2022-12-19T05:27:58.798Z,102613.84
2022-12-19T05:31:08.179Z,102602.94
2022-12-19T05:34:13.379Z,102613.34
2022-12-19T05:37:18.921Z,102589.66
2022-12-19T05:40:25.442Z,102596.47
2022-12-19T05:43:30.930Z,102601.34
2022-12-19T05:46:36.145Z,102599.75
2022-12-19T05:49:41.035Z,102604.84
2022-12-19T05:52:46.637Z,102599.06
2022-12-19T05:55:53.386Z,102597.47
2022-12-19T05:59:01.071Z,102594.78
2022-12-19T06:02:06.810Z,102593.34
2022-12-19T06:05:12.772Z,102591.69
2022-12-19T06:08:21.285Z,102598.16
2022-12-19T06:11:28.541Z,102588.81
2022-12-19T06:14:33.671Z,102598.22
2022-12-19T06:17:38.606Z,102597.22
2022-12-19T06:20:43.582Z,102593.13
2022-12-19T06:23:49.661Z,102590.06
2022-12-19T06:26:56.112Z,102588.94
2022-12-19T06:30:01.714Z,102586.34
2022-12-19T06:33:06.989Z,102577.41
2022-12-19T06:36:18.235Z,102571.22
2022-12-19T06:39:24.517Z,102568.59
2022-12-19T06:42:33.423Z,102571.91
2022-12-19T06:45:39.890Z,102568.53
2022-12-19T06:48:46.059Z,102574.47
2022-12-19T06:51:52.324Z,102573.69
2022-12-19T06:54:57.695Z,102564.34
2022-12-19T06:58:04.393Z,102564.22
2022-12-19T07:01:17.005Z,102565.38
2022-12-19T07:04:26.932Z,102570.19
2022-12-19T07:07:32.798Z,102559.19
2022-12-19T07:10:39.282Z,102561.72
2022-12-19T07:13:47.597Z,102555.94
2022-12-19T07:16:54.176Z,102548.59
2022-12-19T07:20:00.593Z,102536.88
2022-12-19T07:23:07.178Z,102537.66
2022-12-19T07:26:13.626Z,102534.91
2022-12-19T07:29:20.701Z,102527.63
2022-12-19T07:32:25.990Z,102526.66
2022-12-19T07:35:31.378Z,102524.19
2022-12-19T07:38:36.976Z,102538.28
2022-12-19T07:41:42.654Z,102527.59
2022-12-19T07:44:49.381Z,102528.44
2022-12-19T07:47:55.279Z,102522.53
2022-12-19T07:51:00.711Z,102517.44
2022-12-19T07:54:06.068Z,102521.66
2022-12-19T07:57:11.273Z,102514.06
2022-12-19T08:00:18.868Z,102509.94
2022-12-19T08:03:24.742Z,102510.00
2022-12-19T08:06:30.312Z,102506.53
2022-12-19T08:09:35.922Z,102491.41
2022-12-19T08:12:41.409Z,102503.00
2022-12-19T08:15:48.448Z,102502.25
2022-12-19T08:18:53.754Z,102495.38
2022-12-19T08:21:59.495Z,102495.34
2022-12-19T08:25:04.746Z,102494.53
2022-12-19T08:28:10.224Z,102484.34
2022-12-19T08:31:18.808Z,102482.69
2022-12-19T08:34:24.048Z,102476.78
2022-12-19T08:37:29.316Z,102466.53
2022-12-19T08:40:34.447Z,102464.00
2022-12-19T08:43:39.985Z,102458.19
2022-12-19T08:46:49.967Z,102449.53
2022-12-19T08:49:55.503Z,102451.19
2022-12-19T08:53:00.614Z,102448.56
2022-12-19T08:56:07.914Z,102436.66
2022-12-19T08:59:13.427Z,102431.69
2022-12-19T09:02:21.838Z,102434.09
2022-12-19T09:06:04.492Z,102429.06
2022-12-19T09:08:52.430Z,102428.19
2022-12-19T09:11:59.968Z,102427.22
2022-12-19T09:15:06.098Z,102413.88
2022-12-19T09:18:15.342Z,102423.22
2022-12-19T09:21:21.510Z,102410.72
2022-12-19T09:24:26.666Z,102400.38
2022-12-19T09:27:42.500Z,102392.81
2022-12-19T09:30:58.181Z,102391.97
2022-12-19T09:34:05.149Z,102385.25
2022-12-19T09:37:16.444Z,102387.03
2022-12-19T09:40:23.214Z,102382.91
2022-12-19T09:43:41.094Z,102375.28
2022-12-19T09:46:50.907Z,102372.84
2022-12-19T09:49:57.644Z,102357.94
2022-12-19T09:53:08.116Z,102362.97
2022-12-19T09:56:17.218Z,102357.13
2022-12-19T09:59:31.828Z,102354.66
2022-12-19T10:02:50.700Z,102341.31
2022-12-19T10:06:45.698Z,102329.41
2022-12-19T10:12:12.718Z,102338.03
2022-12-19T10:13:13.247Z,102337.16
2022-12-19T10:16:22.935Z,102330.97
2022-12-19T10:19:36.027Z,102321.25
2022-12-19T10:22:49.319Z,102315.28
2022-12-19T10:26:00.916Z,102301.00
2022-12-19T10:29:25.001Z,102301.97
2022-12-19T10:32:36.791Z,102282.09
2022-12-19T10:35:45.397Z,102292.38
2022-12-19T10:38:58.513Z,102278.81
2022-12-19T10:42:10.948Z,102281.28
2022-12-19T10:45:19.260Z,102265.47
2022-12-19T10:48:30.796Z,102282.25
2022-12-19T10:51:36.539Z,102274.84
2022-12-19T10:54:44.293Z,102269.06
2022-12-19T10:57:49.886Z,102271.75
2022-12-19T11:01:14.178Z,102276.78
2022-12-19T11:04:52.582Z,102272.03
2022-12-19T11:08:12.509Z,102254.34
2022-12-19T11:14:33.961Z,102229.31
2022-12-19T11:18:47.493Z,102223.38
2022-12-19T11:28:08.237Z,102210.84
2022-12-19T11:29:39.512Z,102192.56
2022-12-19T11:30:46.766Z,102188.47
2022-12-19T11:30:59.584Z,102187.56
2022-12-19T11:32:39.502Z,102179.34
2022-12-19T11:35:51.278Z,102172.66
2022-12-19T11:38:56.773Z,102162.75
2022-12-19T11:42:10.089Z,102158.59
2022-12-19T11:45:21.600Z,102154.44
2022-12-19T11:48:35.856Z,102145.19
2022-12-19T11:51:45.088Z,102150.22
2022-12-19T11:54:59.623Z,102151.97
2022-12-19T11:58:07.257Z,102142.66
2022-12-19T12:01:19.793Z,102135.88
2022-12-19T12:04:54.433Z,102132.72
2022-12-19T12:09:02.011Z,102102.47
2022-12-19T12:18:54.201Z,102100.22
2022-12-19T12:28:38.957Z,102093.50
2022-12-19T12:31:05.688Z,102092.66
2022-12-19T12:31:21.757Z,102081.91
2022-12-19T12:31:40.921Z,102071.19
2022-12-19T12:31:57.251Z,102079.50
2022-12-19T12:35:38.340Z,102057.03
2022-12-19T12:40:49.967Z,102047.06
2022-12-19T12:44:07.830Z,102049.69
2022-12-19T12:47:19.131Z,102033.09
2022-12-19T12:50:26.611Z,102020.69
2022-12-19T12:53:35.550Z,102020.88
2022-12-19T12:56:41.774Z,102018.03
2022-12-19T12:59:48.768Z,102013.88
2022-12-19T13:02:58.810Z,102019.13
2022-12-19T13:06:11.719Z,102000.59
2022-12-19T13:09:28.099Z,102005.63
2022-12-19T13:13:02.570Z,101996.31
2022-12-19T13:16:55.643Z,101979.47
2022-12-19T13:20:41.644Z,101980.38
2022-12-19T13:23:50.353Z,101978.69
2022-12-19T13:26:59.080Z,101967.50
2022-12-19T13:30:17.664Z,101947.75
2022-12-19T13:33:23.279Z,101953.22
2022-12-19T13:39:58.422Z,101945.19
2022-12-19T13:40:30.631Z,101942.41
2022-12-19T13:43:48.037Z,101928.81
2022-12-19T13:46:54.308Z,101927.25
2022-12-19T13:50:00.345Z,101919.69
2022-12-19T13:53:13.115Z,101923.16
2022-12-19T13:56:22.206Z,101918.84
2022-12-19T13:59:32.180Z,101907.94
2022-12-19T14:02:45.923Z,101898.53
2022-12-19T14:06:17.424Z,101887.78
2022-12-19T14:11:31.317Z,101888.56
2022-12-19T14:13:46.812Z,101891.91
2022-12-19T14:16:45.163Z,101881.13
2022-12-19T14:19:53.597Z,101888.56
2022-12-19T14:23:25.898Z,101870.25
2022-12-19T14:28:23.675Z,101867.69
2022-12-19T14:30:28.859Z,101867.69
2022-12-19T14:33:58.913Z,101867.59
2022-12-19T14:37:07.598Z,101859.84
2022-12-19T14:40:23.746Z,101848.22
2022-12-19T14:43:58.819Z,101828.78
2022-12-19T14:52:34.153Z,101826.28
2022-12-19T14:54:07.659Z,101828.09
2022-12-19T14:58:51.228Z,101819.03
2022-12-19T15:01:24.580Z,101812.28
2022-12-19T15:04:52.889Z,101809.72
2022-12-19T15:08:01.916Z,101804.78
2022-12-19T15:11:48.830Z,101803.91
2022-12-19T15:14:59.669Z,101800.44
2022-12-19T15:18:18.420Z,101798.75
2022-12-19T15:21:26.569Z,101791.25
2022-12-19T15:24:35.236Z,101796.22
2022-12-19T15:27:41.005Z,101792.72
2022-12-19T15:30:49.381Z,101776.94
2022-12-19T15:34:33.584Z,101770.97
2022-12-19T15:37:26.250Z,101771.84
2022-12-19T15:40:35.220Z,101755.00
2022-12-19T15:44:02.996Z,101755.84
2022-12-19T15:47:08.235Z,101747.50
2022-12-19T15:50:20.204Z,101739.84
2022-12-19T15:53:40.251Z,101732.25
2022-12-19T15:56:57.073Z,101740.69
2022-12-19T16:00:07.954Z,101723.88
2022-12-19T16:03:25.704Z,101724.66
2022-12-19T16:06:32.389Z,101712.97
2022-12-19T16:09:53.276Z,101707.91
2022-12-19T16:13:01.638Z,101711.19
2022-12-19T16:16:16.143Z,101701.13
2022-12-19T16:19:26.324Z,101692.69
2022-12-19T16:22:34.122Z,101692.78
2022-12-19T16:25:42.516Z,101682.63
2022-12-19T16:28:53.366Z,101670.72
2022-12-19T16:32:01.308Z,101668.16
2022-12-19T16:35:24.014Z,101662.28
2022-12-19T16:38:41.678Z,101660.59
2022-12-19T16:41:47.864Z,101661.44
2022-12-19T16:44:56.476Z,101647.09
2022-12-19T16:48:02.388Z,101641.22
2022-12-19T16:51:09.378Z,101639.53
2022-12-19T16:54:15.489Z,101642.03
2022-12-19T16:57:22.610Z,101636.25
2022-12-19T17:00:34.856Z,101631.06
2022-12-19T17:03:43.349Z,101629.38
2022-12-19T17:06:49.319Z,101615.94
2022-12-19T17:10:01.719Z,101615.88
2022-12-19T17:13:08.932Z,101610.88
2022-12-19T17:16:18.246Z,101603.19
2022-12-19T17:19:27.818Z,101601.59
2022-12-19T17:22:34.349Z,101586.44
2022-12-19T17:25:40.862Z,101590.63
2022-12-19T17:28:49.288Z,101585.66
2022-12-19T17:31:57.007Z,101576.47
2022-12-19T17:35:02.863Z,101579.72
2022-12-19T17:38:16.719Z,101579.66
2022-12-19T17:41:24.972Z,101568.72
2022-12-19T17:44:40.215Z,101552.72
2022-12-19T17:47:49.005Z,101552.00
2022-12-19T17:50:55.148Z,101548.53
2022-12-19T17:54:01.636Z,101548.50
2022-12-19T17:57:06.930Z,101545.13
2022-12-19T18:00:16.509Z,101545.06
2022-12-19T18:03:26.948Z,101539.09
2022-12-19T18:06:32.617Z,101543.34
2022-12-19T18:09:38.115Z,101528.97
2022-12-19T18:12:55.476Z,101535.78
2022-12-19T18:16:02.292Z,101529.00
2022-12-19T18:19:12.449Z,101518.84
2022-12-19T18:22:30.161Z,101511.34
2022-12-19T18:25:39.941Z,101512.13
2022-12-19T18:28:49.064Z,101506.28
2022-12-19T18:31:59.088Z,101509.69
2022-12-19T18:35:06.953Z,101487.75
2022-12-19T18:38:17.303Z,101486.88
2022-12-19T18:41:26.144Z,101487.78
2022-12-19T18:44:32.959Z,101484.38
2022-12-19T18:47:44.511Z,101474.22
2022-12-19T18:50:54.377Z,101470.91
2022-12-19T18:54:02.271Z,101464.09
2022-12-19T18:57:08.303Z,101458.28
2022-12-19T19:00:18.101Z,101464.94
2022-12-19T19:03:30.383Z,101455.75
2022-12-19T19:06:48.583Z,101447.34
2022-12-19T19:09:56.715Z,101449.84
2022-12-19T19:13:37.575Z,101444.81
2022-12-19T19:16:44.315Z,101439.78
2022-12-19T19:19:50.400Z,101436.41
2022-12-19T19:23:17.295Z,101427.94
2022-12-19T19:26:33.351Z,101427.97
2022-12-19T19:29:39.041Z,101415.38
2022-12-19T19:32:48.533Z,101416.16
2022-12-19T19:35:57.789Z,101418.69
2022-12-19T19:39:10.311Z,101412.88
2022-12-19T19:42:17.674Z,101409.50
2022-12-19T19:45:25.936Z,101401.91
2022-12-19T19:48:35.360Z,101398.56
2022-12-19T19:51:45.392Z,101393.47
2022-12-19T19:55:00.061Z,101386.78
2022-12-19T19:58:12.215Z,101380.84
2022-12-19T20:01:20.202Z,101392.72
2022-12-19T20:04:31.772Z,101378.38
2022-12-19T20:07:43.109Z,101381.75
2022-12-19T20:10:57.866Z,101369.09
2022-12-19T20:14:04.625Z,101365.75
2022-12-19T20:17:17.550Z,101362.44
2022-12-19T20:20:30.742Z,101351.50
2022-12-19T20:23:37.917Z,101348.09
2022-12-19T20:26:45.092Z,101348.13
2022-12-19T20:29:53.419Z,101358.25
2022-12-19T20:33:03.393Z,101339.72
2022-12-19T20:36:12.341Z,101343.13
2022-12-19T20:39:24.718Z,101339.75
2022-12-19T20:42:43.314Z,101333.00
2022-12-19T20:45:51.253Z,101327.13
2022-12-19T20:52:23.409Z,101326.31
2022-12-19T20:55:45.083Z,101328.84
2022-12-19T20:59:05.701Z,101325.50
2022-12-19T21:02:13.628Z,101316.31
2022-12-19T21:05:25.791Z,101310.38
2022-12-19T21:08:37.268Z,101303.69
2022-12-19T21:11:43.441Z,101307.03
2022-12-19T21:14:50.265Z,101297.75
2022-12-19T21:18:05.110Z,101305.34
2022-12-19T21:21:17.298Z,101292.75
2022-12-19T21:24:23.244Z,101298.63
2022-12-19T21:27:30.880Z,101302.84
2022-12-19T21:30:40.337Z,101297.75
2022-12-19T21:33:48.718Z,101298.63
2022-12-19T21:36:56.044Z,101298.66
2022-12-19T21:40:01.697Z,101291.09
2022-12-19T21:43:12.237Z,101293.63
2022-12-19T21:46:25.133Z,101292.75
2022-12-19T21:49:31.991Z,101286.94
2022-12-19T21:52:41.105Z,101275.16
2022-12-19T21:55:46.386Z,101273.38
2022-12-19T21:58:55.447Z,101271.78
2022-12-19T22:02:03.519Z,101257.50
2022-12-19T22:05:09.829Z,101253.25
2022-12-19T22:08:18.590Z,101259.16
2022-12-19T22:11:29.266Z,101261.69
2022-12-19T22:14:36.566Z,101262.47
2022-12-19T22:17:48.641Z,101243.94
2022-12-19T22:21:03.691Z,101237.19
2022-12-19T22:24:11.267Z,101244.03
2022-12-19T22:27:18.496Z,101247.31
2022-12-19T22:30:28.482Z,101238.88
2022-12-19T22:33:35.480Z,101227.13
2022-12-19T22:36:42.516Z,101227.13
2022-12-19T22:39:47.993Z,101224.53
2022-12-19T22:43:20.740Z,101219.53
2022-12-19T22:47:23.255Z,101211.94
2022-12-19T22:50:31.078Z,101205.22
2022-12-19T22:53:37.000Z,101197.59
2022-12-19T22:56:42.750Z,101189.16
2022-12-19T22:59:51.320Z,101188.31
2022-12-19T23:02:58.612Z,101183.38
2022-12-19T23:06:08.517Z,101184.19
2022-12-19T23:09:17.572Z,101178.38
2022-12-19T23:12:24.240Z,101168.22
2022-12-19T23:15:29.836Z,101150.56
2022-12-19T23:18:36.696Z,101150.56
2022-12-19T23:21:43.911Z,101151.41
2022-12-19T23:24:53.988Z,101146.28
2022-12-19T23:27:59.453Z,101141.25
2022-12-19T23:31:08.230Z,101143.78
2022-12-19T23:34:18.568Z,101131.19
2022-12-19T23:37:28.692Z,101137.91
2022-12-19T23:40:36.439Z,101124.41
2022-12-19T23:43:42.500Z,101127.75
2022-12-19T23:46:48.528Z,101128.59
2022-12-19T23:49:55.885Z,101120.16
2022-12-19T23:53:03.160Z,101111.75
2022-12-19T23:56:13.156Z,101109.28
2022-12-19T23:59:20.385Z,101105.06
